Roma — T8A2207 — position and weather

sailwx.info

Track history (hours):
 
Tides and Currents Weather Stations Pressure Air Temp Water Temp Dewpoint Dewpoint Depression Visibility Wind Speed Wind Dir Waves Ship Positions

Roma

Last reported at 2018-Feb-08 01:30 UTC. Time now 2018-Feb-21 11:41 UTC.
Position N 35°60' E 014°24'.
Warning: this ship's position is 13 days out of date.

; draft 6.2 m.

Type: Cargo ship. MMSI: 511248000.

Date/timePositionNaut miles runAvg speedWind from/ knotsBaromVisibWave heightAir tempDewpointWater temp
2018-Feb-08 01:30N 35°60' E 014°24'0 0.0
2018-Feb-08 01:00N 35°60' E 014°24'0 0.0
2018-Feb-08 00:30N 35°60' E 014°24'0 0.1
2018-Feb-08 00:00N 35°60' E 014°24'0 0.0
2018-Feb-07 23:30N 35°60' E 014°24'0 0.0
2018-Feb-07 22:59N 35°60' E 014°24'0 0.0
2018-Feb-07 22:29N 35°60' E 014°24'0 0.0
2018-Feb-07 22:00N 35°60' E 014°24'0 0.0
2018-Feb-07 21:30N 35°60' E 014°24'22 1.8
2018-Feb-07 09:20N 35°53' E 014°51'0 0.0
2018-Feb-07 08:57N 35°53' E 014°51'0 0.0
2018-Feb-07 08:30N 35°53' E 014°51'0 0.0
2018-Feb-07 07:59N 35°53' E 014°51'0 0.0
2018-Feb-07 07:27N 35°53' E 014°51'0 0.0
2018-Feb-07 07:00N 35°53' E 014°51'0 0.0
2018-Feb-07 06:31N 35°53' E 014°51'0 0.0
2018-Feb-07 05:54N 35°53' E 014°51'2 2.3
2018-Feb-07 04:56N 35°55' E 014°48'7 4.8
2018-Feb-07 03:33N 35°58' E 014°41'0 9.1
2018-Feb-07 03:30N 35°58' E 014°41'5 9.6
2018-Feb-07 02:57N 36°00' E 014°35'510.1
2018-Feb-07 02:29N 36°02' E 014°29'5 9.9
2018-Feb-07 01:59N 36°04' E 014°24'5 9.6
2018-Feb-07 01:29N 36°06' E 014°19'5 9.4
2018-Feb-07 00:59N 36°08' E 014°13'5 9.3
2018-Feb-07 00:30N 36°10' E 014°08'5 9.4
2018-Feb-06 23:59N 36°12' E 014°03'4 9.5
2018-Feb-06 23:30N 36°14' E 013°58'5 8.8
2018-Feb-06 23:00N 36°16' E 013°53'4 8.5
2018-Feb-06 22:30N 36°18' E 013°48'4 8.4
2018-Feb-06 22:00N 36°20' E 013°44'4 8.2
2018-Feb-06 21:30N 36°22' E 013°39'4 8.0
2018-Feb-06 21:00N 36°24' E 013°35'4 8.2
2018-Feb-06 20:29N 36°25' E 013°30'4 8.2
2018-Feb-06 20:00N 36°27' E 013°25'4 8.0
2018-Feb-06 19:28N 36°29' E 013°20'331 9.6
2018-Feb-05 08:59N 37°12' E 006°31'5 9.7
2018-Feb-05 08:30N 37°12' E 006°25'5 9.9
2018-Feb-05 08:00N 37°12' E 006°19'5 9.9
2018-Feb-05 07:30N 37°12' E 006°13'5 9.8
2018-Feb-05 06:59N 37°11' E 006°06'5 9.8
2018-Feb-05 06:26N 37°11' E 005°59'  
2018-Feb-03 01:38N 36°00' W 005°12'212.7
2018-Feb-03 01:30N 35°60' W 005°14'612.6
2018-Feb-03 01:01N 35°59' W 005°21'612.1
2018-Feb-03 00:30N 35°57' W 005°28'259 8.8
2018-Feb-01 19:00N 38°20' W 009°60'710.6
2018-Feb-01 18:19N 38°27' W 010°02'410.5
2018-Feb-01 17:59N 38°30' W 010°03'510.7
2018-Feb-01 17:30N 38°35' W 010°05'510.7
2018-Feb-01 17:00N 38°40' W 010°07'510.7
2018-Feb-01 16:30N 38°46' W 010°07'510.7
2018-Feb-01 16:00N 38°51' W 010°07'510.5
2018-Feb-01 15:30N 38°56' W 010°07'5 9.9
2018-Feb-01 15:00N 39°01' W 010°07'  
2018-Jan-30 09:06N 43°46' W 005°50'210.6
2018-Jan-30 08:55N 43°46' W 005°48'510.7
2018-Jan-30 08:29N 43°46' W 005°41'610.6
2018-Jan-30 07:55N 43°45' W 005°33'510.4
2018-Jan-30 07:27N 43°44' W 005°27'510.5
2018-Jan-30 07:00N 43°44' W 005°20'610.4
2018-Jan-30 06:28N 43°43' W 005°12'510.4
2018-Jan-30 05:59N 43°43' W 005°05'510.4
2018-Jan-30 05:29N 43°42' W 004°58'6610.3
2018-Jan-29 23:05N 43°33' W 003°28'110.0
2018-Jan-29 23:00N 43°33' W 003°27'510.1
2018-Jan-29 22:30N 43°32' W 003°20'5 9.9
2018-Jan-29 22:00N 43°29' W 003°14'510.0
2018-Jan-29 21:30N 43°26' W 003°08'4 7.9
2018-Jan-29 21:00N 43°23' W 003°05'3 5.0
2018-Jan-29 20:30N 43°21' W 003°03'1 2.3
2018-Jan-29 19:59N 43°21' W 003°04'0 0.0
2018-Jan-29 19:29N 43°21' W 003°04'0 0.0
2018-Jan-29 18:59N 43°21' W 003°04'0 0.0
2018-Jan-29 18:26N 43°21' W 003°04'0 0.0
2018-Jan-29 17:56N 43°21' W 003°04'0 0.0
2018-Jan-29 17:29N 43°21' W 003°04'0 0.0
2018-Jan-29 16:59N 43°21' W 003°04'0 0.0
2018-Jan-29 16:29N 43°21' W 003°04'0 0.0
2018-Jan-29 15:59N 43°21' W 003°04'0 0.0
2018-Jan-29 15:29N 43°21' W 003°04'0 0.0
2018-Jan-29 14:59N 43°21' W 003°04'0 0.0
2018-Jan-29 14:29N 43°21' W 003°04'0 0.0
2018-Jan-29 13:59N 43°21' W 003°04'0 0.0
2018-Jan-29 13:29N 43°21' W 003°04'0 0.0
2018-Jan-29 12:59N 43°21' W 003°04'0 0.0
2018-Jan-29 12:29N 43°21' W 003°04'0 0.0
2018-Jan-29 11:59N 43°21' W 003°04'0 0.0
2018-Jan-29 11:26N 43°21' W 003°04'0 0.0
2018-Jan-29 10:59N 43°21' W 003°04'0 0.0
2018-Jan-29 10:29N 43°21' W 003°04'0 0.0
2018-Jan-29 09:59N 43°21' W 003°04'0 0.0
2018-Jan-29 09:29N 43°21' W 003°04'0 0.0
2018-Jan-29 08:59N 43°21' W 003°04'0 0.0
2018-Jan-29 08:29N 43°21' W 003°04'0 0.0
2018-Jan-29 07:59N 43°21' W 003°04'0 0.0
2018-Jan-29 07:29N 43°21' W 003°04'0 0.0
2018-Jan-29 06:59N 43°21' W 003°04'0 0.0
2018-Jan-29 06:26N 43°21' W 003°04'0 0.0
2018-Jan-29 05:59N 43°21' W 003°04'0 0.0
2018-Jan-29 05:29N 43°21' W 003°04'0 0.0
2018-Jan-29 04:56N 43°21' W 003°04'0 0.0
2018-Jan-29 04:29N 43°21' W 003°04'0 0.0
2018-Jan-29 03:59N 43°21' W 003°04'0 0.0
2018-Jan-29 03:29N 43°21' W 003°04'0 0.0
2018-Jan-29 02:56N 43°21' W 003°04'0 0.0
2018-Jan-29 02:29N 43°21' W 003°04'0 0.0
2018-Jan-29 01:59N 43°21' W 003°04'  
Track history (hours):
 
Tides and Currents Weather Stations Pressure Air Temp Water Temp Dewpoint Dewpoint Depression Visibility Wind Speed Wind Dir Waves Ship Positions

Roma

Last reported at 2018-Feb-08 01:30 UTC. Time now 2018-Feb-21 11:41 UTC.
Position N 35°60' E 014°24'.
Warning: this ship's position is 13 days out of date.

; draft 6.2 m.

Type: Cargo ship. MMSI: 511248000.

Date/timePositionNaut miles runAvg speedWind from/ knotsBaromVisibWave heightAir tempDewpointWater temp
2018-Feb-08 01:30N 35°60' E 014°24'0 0.0
2018-Feb-08 01:00N 35°60' E 014°24'0 0.0
2018-Feb-08 00:30N 35°60' E 014°24'0 0.1
2018-Feb-08 00:00N 35°60' E 014°24'0 0.0
2018-Feb-07 23:30N 35°60' E 014°24'0 0.0
2018-Feb-07 22:59N 35°60' E 014°24'0 0.0
2018-Feb-07 22:29N 35°60' E 014°24'0 0.0
2018-Feb-07 22:00N 35°60' E 014°24'0 0.0
2018-Feb-07 21:30N 35°60' E 014°24'22 1.8
2018-Feb-07 09:20N 35°53' E 014°51'0 0.0
2018-Feb-07 08:57N 35°53' E 014°51'0 0.0
2018-Feb-07 08:30N 35°53' E 014°51'0 0.0
2018-Feb-07 07:59N 35°53' E 014°51'0 0.0
2018-Feb-07 07:27N 35°53' E 014°51'0 0.0
2018-Feb-07 07:00N 35°53' E 014°51'0 0.0
2018-Feb-07 06:31N 35°53' E 014°51'0 0.0
2018-Feb-07 05:54N 35°53' E 014°51'2 2.3
2018-Feb-07 04:56N 35°55' E 014°48'7 4.8
2018-Feb-07 03:33N 35°58' E 014°41'0 9.1
2018-Feb-07 03:30N 35°58' E 014°41'5 9.6
2018-Feb-07 02:57N 36°00' E 014°35'510.1
2018-Feb-07 02:29N 36°02' E 014°29'5 9.9
2018-Feb-07 01:59N 36°04' E 014°24'5 9.6
2018-Feb-07 01:29N 36°06' E 014°19'5 9.4
2018-Feb-07 00:59N 36°08' E 014°13'5 9.3
2018-Feb-07 00:30N 36°10' E 014°08'5 9.4
2018-Feb-06 23:59N 36°12' E 014°03'4 9.5
2018-Feb-06 23:30N 36°14' E 013°58'5 8.8
2018-Feb-06 23:00N 36°16' E 013°53'4 8.5
2018-Feb-06 22:30N 36°18' E 013°48'4 8.4
2018-Feb-06 22:00N 36°20' E 013°44'4 8.2
2018-Feb-06 21:30N 36°22' E 013°39'4 8.0
2018-Feb-06 21:00N 36°24' E 013°35'4 8.2
2018-Feb-06 20:29N 36°25' E 013°30'4 8.2
2018-Feb-06 20:00N 36°27' E 013°25'4 8.0
2018-Feb-06 19:28N 36°29' E 013°20'331 9.6
2018-Feb-05 08:59N 37°12' E 006°31'5 9.7
2018-Feb-05 08:30N 37°12' E 006°25'5 9.9
2018-Feb-05 08:00N 37°12' E 006°19'5 9.9
2018-Feb-05 07:30N 37°12' E 006°13'5 9.8
2018-Feb-05 06:59N 37°11' E 006°06'5 9.8
2018-Feb-05 06:26N 37°11' E 005°59'  
2018-Feb-03 01:38N 36°00' W 005°12'212.7
2018-Feb-03 01:30N 35°60' W 005°14'612.6
2018-Feb-03 01:01N 35°59' W 005°21'612.1
2018-Feb-03 00:30N 35°57' W 005°28'259 8.8
2018-Feb-01 19:00N 38°20' W 009°60'710.6
2018-Feb-01 18:19N 38°27' W 010°02'410.5
2018-Feb-01 17:59N 38°30' W 010°03'510.7
2018-Feb-01 17:30N 38°35' W 010°05'510.7
2018-Feb-01 17:00N 38°40' W 010°07'510.7
2018-Feb-01 16:30N 38°46' W 010°07'510.7
2018-Feb-01 16:00N 38°51' W 010°07'510.5
2018-Feb-01 15:30N 38°56' W 010°07'5 9.9
2018-Feb-01 15:00N 39°01' W 010°07'  
2018-Jan-30 09:06N 43°46' W 005°50'210.6
2018-Jan-30 08:55N 43°46' W 005°48'510.7
2018-Jan-30 08:29N 43°46' W 005°41'610.6
2018-Jan-30 07:55N 43°45' W 005°33'510.4
2018-Jan-30 07:27N 43°44' W 005°27'510.5
2018-Jan-30 07:00N 43°44' W 005°20'610.4
2018-Jan-30 06:28N 43°43' W 005°12'510.4
2018-Jan-30 05:59N 43°43' W 005°05'510.4
2018-Jan-30 05:29N 43°42' W 004°58'6610.3
2018-Jan-29 23:05N 43°33' W 003°28'110.0
2018-Jan-29 23:00N 43°33' W 003°27'510.1
2018-Jan-29 22:30N 43°32' W 003°20'5 9.9
2018-Jan-29 22:00N 43°29' W 003°14'510.0
2018-Jan-29 21:30N 43°26' W 003°08'4 7.9
2018-Jan-29 21:00N 43°23' W 003°05'3 5.0
2018-Jan-29 20:30N 43°21' W 003°03'1 2.3
2018-Jan-29 19:59N 43°21' W 003°04'0 0.0
2018-Jan-29 19:29N 43°21' W 003°04'0 0.0
2018-Jan-29 18:59N 43°21' W 003°04'0 0.0
2018-Jan-29 18:26N 43°21' W 003°04'0 0.0
2018-Jan-29 17:56N 43°21' W 003°04'0 0.0
2018-Jan-29 17:29N 43°21' W 003°04'0 0.0
2018-Jan-29 16:59N 43°21' W 003°04'0 0.0
2018-Jan-29 16:29N 43°21' W 003°04'0 0.0
2018-Jan-29 15:59N 43°21' W 003°04'0 0.0
2018-Jan-29 15:29N 43°21' W 003°04'0 0.0
2018-Jan-29 14:59N 43°21' W 003°04'0 0.0
2018-Jan-29 14:29N 43°21' W 003°04'0 0.0
2018-Jan-29 13:59N 43°21' W 003°04'0 0.0
2018-Jan-29 13:29N 43°21' W 003°04'0 0.0
2018-Jan-29 12:59N 43°21' W 003°04'0 0.0
2018-Jan-29 12:29N 43°21' W 003°04'0 0.0
2018-Jan-29 11:59N 43°21' W 003°04'0 0.0
2018-Jan-29 11:26N 43°21' W 003°04'0 0.0
2018-Jan-29 10:59N 43°21' W 003°04'0 0.0
2018-Jan-29 10:29N 43°21' W 003°04'0 0.0
2018-Jan-29 09:59N 43°21' W 003°04'0 0.0
2018-Jan-29 09:29N 43°21' W 003°04'0 0.0
2018-Jan-29 08:59N 43°21' W 003°04'0 0.0
2018-Jan-29 08:29N 43°21' W 003°04'0 0.0
2018-Jan-29 07:59N 43°21' W 003°04'0 0.0
2018-Jan-29 07:29N 43°21' W 003°04'0 0.0
2018-Jan-29 06:59N 43°21' W 003°04'0 0.0
2018-Jan-29 06:26N 43°21' W 003°04'0 0.0
2018-Jan-29 05:59N 43°21' W 003°04'0 0.0
2018-Jan-29 05:29N 43°21' W 003°04'0 0.0
2018-Jan-29 04:56N 43°21' W 003°04'0 0.0
2018-Jan-29 04:29N 43°21' W 003°04'0 0.0
2018-Jan-29 03:59N 43°21' W 003°04'0 0.0
2018-Jan-29 03:29N 43°21' W 003°04'0 0.0
2018-Jan-29 02:56N 43°21' W 003°04'0 0.0
2018-Jan-29 02:29N 43°21' W 003°04'0 0.0
2018-Jan-29 01:59N 43°21' W 003°04'  

Dump ship's entire track history